ユジノサハリンスク の空港の天気 - METARとTAF

ホムトヴォ空港(ユジノサハリンスク) ( UHSS / UUS ) - ロシア ユジノサハリンスク
飛行場実況気象(Metar)
観測時間02/18 08:30 VLAT (02/17 22:30 UTC)
風向・風速静穏 0m/s
視程6000m
天気現象
なし
気温-20℃
湿度84%
気圧1012hPa
METARUHSS 172230Z 00000MPS 6000 NSC M20/M22 Q1012 R01/810360 NOSIG RMK QFE758/1010
過去の天気等 Google飛行場航空写真 Wunderground天気予報

過去48時間のMETAR

飛行場予報(TAF)
発表時間: 2/18 06:00 VLAT (2/17 20:00 UTC)
予報対象時間: 18日7時 VLAT ~ 19日13時 VLAT
風向・風速不定 1m/s
視程10km以上
全天の4割程度の積乱雲 雲底高度 910m
18日10時 VLAT ~ 18日12時 VLAT に徐々に
風向・風速西北西 3m/s
TAF UHSS 172000Z 1721/1903 VRB01MPS 9999 SCT030CB
BECMG 1800/1802 29003MPS